sensor_id;sensor_type;location;lat;lon;timestamp;temperature;humidity
4677;DHT22;2352;48.180;11.478;2023-04-15T00:01:01;9.70;99.90
4677;DHT22;2352;48.180;11.478;2023-04-15T00:04:05;9.60;99.90
4677;DHT22;2352;48.180;11.478;2023-04-15T00:07:09;9.70;99.90
4677;DHT22;2352;48.180;11.478;2023-04-15T00:10:12;9.70;99.90
4677;DHT22;2352;48.180;11.478;2023-04-15T00:13:15;9.70;99.90
4677;DHT22;2352;48.180;11.478;2023-04-15T00:16:18;9.70;99.90
4677;DHT22;2352;48.180;11.478;2023-04-15T00:19:21;9.70;99.90
4677;DHT22;2352;48.180;11.478;2023-04-15T00:22:26;9.80;99.90
4677;DHT22;2352;48.180;11.478;2023-04-15T00:25:28;9.70;99.90
4677;DHT22;2352;48.180;11.478;2023-04-15T00:28:31;9.70;99.90
4677;DHT22;2352;48.180;11.478;2023-04-15T00:31:34;9.70;99.90
4677;DHT22;2352;48.180;11.478;2023-04-15T00:34:37;9.70;99.90
4677;DHT22;2352;48.180;11.478;2023-04-15T00:37:41;9.70;99.90
4677;DHT22;2352;48.180;11.478;2023-04-15T00:40:47;9.60;99.90
4677;DHT22;2352;48.180;11.478;2023-04-15T00:43:50;9.60;99.90
4677;DHT22;2352;48.180;11.478;2023-04-15T00:46:53;9.60;99.90
4677;DHT22;2352;48.180;11.478;2023-04-15T00:49:56;9.70;99.90
4677;DHT22;2352;48.180;11.478;2023-04-15T00:53:01;9.70;99.90
4677;DHT22;2352;48.180;11.478;2023-04-15T00:56:04;9.60;99.90
4677;DHT22;2352;48.180;11.478;2023-04-15T00:59:07;9.60;99.90
4677;DHT22;2352;48.180;11.478;2023-04-15T01:02:10;9.60;99.90
4677;DHT22;2352;48.180;11.478;2023-04-15T01:05:13;9.60;99.90
4677;DHT22;2352;48.180;11.478;2023-04-15T01:08:20;9.60;99.90
4677;DHT22;2352;48.180;11.478;2023-04-15T01:11:23;9.60;99.90
4677;DHT22;2352;48.180;11.478;2023-04-15T01:14:27;9.60;99.90
4677;DHT22;2352;48.180;11.478;2023-04-15T01:17:30;9.60;99.90
4677;DHT22;2352;48.180;11.478;2023-04-15T01:20:33;9.60;99.90
4677;DHT22;2352;48.180;11.478;2023-04-15T01:23:38;9.50;99.90
4677;DHT22;2352;48.180;11.478;2023-04-15T01:26:42;9.50;99.90
4677;DHT22;2352;48.180;11.478;2023-04-15T01:29:45;9.50;99.90
4677;DHT22;2352;48.180;11.478;2023-04-15T01:32:48;9.50;99.90
4677;DHT22;2352;48.180;11.478;2023-04-15T01:35:51;9.50;99.90
4677;DHT22;2352;48.180;11.478;2023-04-15T01:38:55;9.50;99.90
4677;DHT22;2352;48.180;11.478;2023-04-15T01:42:00;9.50;99.90
4677;DHT22;2352;48.180;11.478;2023-04-15T01:45:03;9.50;99.90
4677;DHT22;2352;48.180;11.478;2023-04-15T01:48:06;9.40;99.90
4677;DHT22;2352;48.180;11.478;2023-04-15T01:51:10;9.50;99.90
4677;DHT22;2352;48.180;11.478;2023-04-15T01:54:13;9.40;99.90
4677;DHT22;2352;48.180;11.478;2023-04-15T01:57:17;9.30;99.90
4677;DHT22;2352;48.180;11.478;2023-04-15T02:00:20;9.30;99.90
4677;DHT22;2352;48.180;11.478;2023-04-15T02:03:24;9.40;99.90
4677;DHT22;2352;48.180;11.478;2023-04-15T02:06:27;9.30;99.90
4677;DHT22;2352;48.180;11.478;2023-04-15T02:09:30;9.40;99.90
4677;DHT22;2352;48.180;11.478;2023-04-15T02:12:34;9.40;99.90
4677;DHT22;2352;48.180;11.478;2023-04-15T02:15:37;9.30;99.90
4677;DHT22;2352;48.180;11.478;2023-04-15T02:18:40;9.20;99.90
4677;DHT22;2352;48.180;11.478;2023-04-15T02:21:43;9.20;99.90
4677;DHT22;2352;48.180;11.478;2023-04-15T02:24:46;9.20;99.90
4677;DHT22;2352;48.180;11.478;2023-04-15T02:27:50;9.20;99.90
4677;DHT22;2352;48.180;11.478;2023-04-15T02:30:53;9.10;99.90
4677;DHT22;2352;48.180;11.478;2023-04-15T02:33:58;9.20;99.90
4677;DHT22;2352;48.180;11.478;2023-04-15T02:37:01;9.20;99.90
4677;DHT22;2352;48.180;11.478;2023-04-15T02:40:05;9.10;99.90
4677;DHT22;2352;48.180;11.478;2023-04-15T02:43:09;9.10;99.90
4677;DHT22;2352;48.180;11.478;2023-04-15T02:46:13;9.10;99.90
4677;DHT22;2352;48.180;11.478;2023-04-15T02:49:15;9.10;99.90
4677;DHT22;2352;48.180;11.478;2023-04-15T02:52:18;9.00;99.90
4677;DHT22;2352;48.180;11.478;2023-04-15T02:55:21;8.90;99.90
4677;DHT22;2352;48.180;11.478;2023-04-15T02:58:25;9.00;99.90
4677;DHT22;2352;48.180;11.478;2023-04-15T03:01:28;9.00;99.90
4677;DHT22;2352;48.180;11.478;2023-04-15T03:04:31;9.10;99.90
4677;DHT22;2352;48.180;11.478;2023-04-15T03:07:34;9.10;99.90
4677;DHT22;2352;48.180;11.478;2023-04-15T03:10:37;9.10;99.90
4677;DHT22;2352;48.180;11.478;2023-04-15T03:13:41;9.10;99.90
4677;DHT22;2352;48.180;11.478;2023-04-15T03:16:44;9.20;99.90
4677;DHT22;2352;48.180;11.478;2023-04-15T03:19:47;9.20;99.90
4677;DHT22;2352;48.180;11.478;2023-04-15T03:22:50;9.20;99.90
4677;DHT22;2352;48.180;11.478;2023-04-15T03:25:53;9.10;99.90
4677;DHT22;2352;48.180;11.478;2023-04-15T03:28:59;9.10;99.90
4677;DHT22;2352;48.180;11.478;2023-04-15T03:32:02;9.20;99.90
4677;DHT22;2352;48.180;11.478;2023-04-15T03:35:06;9.20;99.90
4677;DHT22;2352;48.180;11.478;2023-04-15T03:38:08;9.10;99.90
4677;DHT22;2352;48.180;11.478;2023-04-15T03:41:11;9.10;99.90
4677;DHT22;2352;48.180;11.478;2023-04-15T03:44:16;9.20;99.90
4677;DHT22;2352;48.180;11.478;2023-04-15T03:47:18;9.20;99.90
4677;DHT22;2352;48.180;11.478;2023-04-15T03:50:21;9.20;99.90
4677;DHT22;2352;48.180;11.478;2023-04-15T03:53:24;9.20;99.90
4677;DHT22;2352;48.180;11.478;2023-04-15T03:56:27;9.20;99.90
4677;DHT22;2352;48.180;11.478;2023-04-15T03:59:31;9.20;99.90
4677;DHT22;2352;48.180;11.478;2023-04-15T04:02:34;9.20;99.90
4677;DHT22;2352;48.180;11.478;2023-04-15T04:05:37;9.20;99.90
4677;DHT22;2352;48.180;11.478;2023-04-15T04:08:42;9.20;99.90
4677;DHT22;2352;48.180;11.478;2023-04-15T04:11:45;9.20;99.90
4677;DHT22;2352;48.180;11.478;2023-04-15T04:14:49;9.20;99.90
4677;DHT22;2352;48.180;11.478;2023-04-15T04:17:52;9.20;99.90
4677;DHT22;2352;48.180;11.478;2023-04-15T04:20:55;9.20;99.90
4677;DHT22;2352;48.180;11.478;2023-04-15T04:23:58;9.20;99.90
4677;DHT22;2352;48.180;11.478;2023-04-15T04:27:01;9.10;99.90
4677;DHT22;2352;48.180;11.478;2023-04-15T04:30:06;9.20;99.90
4677;DHT22;2352;48.180;11.478;2023-04-15T04:33:09;9.10;99.90
4677;DHT22;2352;48.180;11.478;2023-04-15T04:36:12;9.10;99.90
4677;DHT22;2352;48.180;11.478;2023-04-15T04:39:15;9.10;99.90
4677;DHT22;2352;48.180;11.478;2023-04-15T04:42:18;9.10;99.90
4677;DHT22;2352;48.180;11.478;2023-04-15T04:45:22;9.10;99.90
4677;DHT22;2352;48.180;11.478;2023-04-15T04:48:25;9.10;99.90
4677;DHT22;2352;48.180;11.478;2023-04-15T04:51:27;9.10;99.90
4677;DHT22;2352;48.180;11.478;2023-04-15T04:54:31;9.10;99.90
4677;DHT22;2352;48.180;11.478;2023-04-15T04:57:34;9.10;99.90
4677;DHT22;2352;48.180;11.478;2023-04-15T05:00:40;9.00;99.90
4677;DHT22;2352;48.180;11.478;2023-04-15T05:03:43;9.10;99.90
4677;DHT22;2352;48.180;11.478;2023-04-15T05:06:46;9.10;99.90
4677;DHT22;2352;48.180;11.478;2023-04-15T05:09:49;9.10;99.90
4677;DHT22;2352;48.180;11.478;2023-04-15T05:12:52;9.10;99.90
4677;DHT22;2352;48.180;11.478;2023-04-15T05:15:56;9.10;99.90
4677;DHT22;2352;48.180;11.478;2023-04-15T05:18:59;8.90;99.90
4677;DHT22;2352;48.180;11.478;2023-04-15T05:22:02;8.90;99.90
4677;DHT22;2352;48.180;11.478;2023-04-15T05:25:05;9.00;99.90
4677;DHT22;2352;48.180;11.478;2023-04-15T05:28:09;9.00;99.90
4677;DHT22;2352;48.180;11.478;2023-04-15T05:31:14;9.00;99.90
4677;DHT22;2352;48.180;11.478;2023-04-15T05:34:17;9.10;99.90
4677;DHT22;2352;48.180;11.478;2023-04-15T05:37:20;9.10;99.90
4677;DHT22;2352;48.180;11.478;2023-04-15T05:40:23;9.10;99.90
4677;DHT22;2352;48.180;11.478;2023-04-15T05:43:25;9.10;99.90
4677;DHT22;2352;48.180;11.478;2023-04-15T05:46:30;9.10;99.60
4677;DHT22;2352;48.180;11.478;2023-04-15T05:49:32;9.10;99.60
4677;DHT22;2352;48.180;11.478;2023-04-15T05:52:36;9.10;99.40
4677;DHT22;2352;48.180;11.478;2023-04-15T05:55:38;9.00;98.80
4677;DHT22;2352;48.180;11.478;2023-04-15T05:58:41;8.90;98.90
4677;DHT22;2352;48.180;11.478;2023-04-15T06:01:45;8.90;98.60
4677;DHT22;2352;48.180;11.478;2023-04-15T06:04:48;8.90;98.70
4677;DHT22;2352;48.180;11.478;2023-04-15T06:07:51;8.90;98.70
4677;DHT22;2352;48.180;11.478;2023-04-15T06:10:54;8.80;98.20
4677;DHT22;2352;48.180;11.478;2023-04-15T06:13:57;8.80;98.70
4677;DHT22;2352;48.180;11.478;2023-04-15T06:17:01;8.70;98.70
4677;DHT22;2352;48.180;11.478;2023-04-15T06:20:05;8.80;98.40
4677;DHT22;2352;48.180;11.478;2023-04-15T06:23:09;8.70;98.40
4677;DHT22;2352;48.180;11.478;2023-04-15T06:26:11;8.80;98.80
4677;DHT22;2352;48.180;11.478;2023-04-15T06:29:14;8.80;98.20
4677;DHT22;2352;48.180;11.478;2023-04-15T06:32:18;8.90;98.40
4677;DHT22;2352;48.180;11.478;2023-04-15T06:35:21;8.90;98.60
4677;DHT22;2352;48.180;11.478;2023-04-15T06:38:24;8.90;97.70
4677;DHT22;2352;48.180;11.478;2023-04-15T06:41:27;8.90;97.80
4677;DHT22;2352;48.180;11.478;2023-04-15T06:44:30;8.90;98.30
4677;DHT22;2352;48.180;11.478;2023-04-15T06:47:36;9.00;97.50
4677;DHT22;2352;48.180;11.478;2023-04-15T06:50:39;9.00;97.20
4677;DHT22;2352;48.180;11.478;2023-04-15T06:53:42;9.00;97.80
4677;DHT22;2352;48.180;11.478;2023-04-15T06:56:44;9.00;97.50
4677;DHT22;2352;48.180;11.478;2023-04-15T06:59:48;9.00;97.40
4677;DHT22;2352;48.180;11.478;2023-04-15T07:02:52;9.10;96.80
4677;DHT22;2352;48.180;11.478;2023-04-15T07:05:55;9.20;97.80
4677;DHT22;2352;48.180;11.478;2023-04-15T07:08:59;9.20;97.60
4677;DHT22;2352;48.180;11.478;2023-04-15T07:12:02;9.20;97.20
4677;DHT22;2352;48.180;11.478;2023-04-15T07:15:06;9.30;97.00
4677;DHT22;2352;48.180;11.478;2023-04-15T07:18:10;9.20;97.00
4677;DHT22;2352;48.180;11.478;2023-04-15T07:21:14;9.20;97.00
4677;DHT22;2352;48.180;11.478;2023-04-15T07:24:17;9.20;96.50
4677;DHT22;2352;48.180;11.478;2023-04-15T07:27:21;9.40;96.90
4677;DHT22;2352;48.180;11.478;2023-04-15T07:30:24;9.30;96.60
4677;DHT22;2352;48.180;11.478;2023-04-15T07:33:28;9.30;96.70
4677;DHT22;2352;48.180;11.478;2023-04-15T07:36:31;9.40;96.00
4677;DHT22;2352;48.180;11.478;2023-04-15T07:39:34;9.50;95.60
4677;DHT22;2352;48.180;11.478;2023-04-15T07:42:37;9.50;95.40
4677;DHT22;2352;48.180;11.478;2023-04-15T07:45:42;9.50;95.40
4677;DHT22;2352;48.180;11.478;2023-04-15T07:48:46;9.60;95.50
4677;DHT22;2352;48.180;11.478;2023-04-15T07:51:49;9.60;94.70
4677;DHT22;2352;48.180;11.478;2023-04-15T07:54:52;9.70;95.30
4677;DHT22;2352;48.180;11.478;2023-04-15T07:57:55;9.70;94.70
4677;DHT22;2352;48.180;11.478;2023-04-15T08:00:58;9.70;94.70
4677;DHT22;2352;48.180;11.478;2023-04-15T08:04:02;9.50;94.40
4677;DHT22;2352;48.180;11.478;2023-04-15T08:07:05;9.60;94.70
4677;DHT22;2352;48.180;11.478;2023-04-15T08:10:08;9.80;94.50
4677;DHT22;2352;48.180;11.478;2023-04-15T08:13:12;9.90;94.40
4677;DHT22;2352;48.180;11.478;2023-04-15T08:16:18;10.00;94.00
4677;DHT22;2352;48.180;11.478;2023-04-15T08:19:22;10.00;94.20
4677;DHT22;2352;48.180;11.478;2023-04-15T08:22:25;10.00;93.60
4677;DHT22;2352;48.180;11.478;2023-04-15T08:25:28;10.20;94.10
4677;DHT22;2352;48.180;11.478;2023-04-15T08:28:31;10.20;93.90
4677;DHT22;2352;48.180;11.478;2023-04-15T08:31:34;10.10;93.20
4677;DHT22;2352;48.180;11.478;2023-04-15T08:34:38;10.30;94.10
4677;DHT22;2352;48.180;11.478;2023-04-15T08:37:41;10.30;93.60
4677;DHT22;2352;48.180;11.478;2023-04-15T08:40:45;10.30;93.50
4677;DHT22;2352;48.180;11.478;2023-04-15T08:43:52;10.40;94.10
4677;DHT22;2352;48.180;11.478;2023-04-15T08:46:56;10.40;93.70
4677;DHT22;2352;48.180;11.478;2023-04-15T08:50:05;10.50;93.60
4677;DHT22;2352;48.180;11.478;2023-04-15T08:53:10;10.60;94.10
4677;DHT22;2352;48.180;11.478;2023-04-15T08:56:14;10.60;93.60
4677;DHT22;2352;48.180;11.478;2023-04-15T08:59:18;10.70;93.80
4677;DHT22;2352;48.180;11.478;2023-04-15T09:02:23;10.60;93.10
4677;DHT22;2352;48.180;11.478;2023-04-15T09:05:30;10.70;93.50
4677;DHT22;2352;48.180;11.478;2023-04-15T09:08:34;10.70;93.40
4677;DHT22;2352;48.180;11.478;2023-04-15T09:11:37;10.70;93.30
4677;DHT22;2352;48.180;11.478;2023-04-15T09:14:42;10.60;92.30
4677;DHT22;2352;48.180;11.478;2023-04-15T09:17:45;10.60;93.10
4677;DHT22;2352;48.180;11.478;2023-04-15T09:20:52;10.60;93.00
4677;DHT22;2352;48.180;11.478;2023-04-15T09:23:57;10.80;92.80
4677;DHT22;2352;48.180;11.478;2023-04-15T09:27:01;10.70;93.50
4677;DHT22;2352;48.180;11.478;2023-04-15T09:30:08;10.70;93.10
4677;DHT22;2352;48.180;11.478;2023-04-15T09:33:13;10.80;93.10
4677;DHT22;2352;48.180;11.478;2023-04-15T09:36:18;10.80;93.60
4677;DHT22;2352;48.180;11.478;2023-04-15T09:39:21;10.90;92.90
4677;DHT22;2352;48.180;11.478;2023-04-15T09:42:24;10.90;93.10
4677;DHT22;2352;48.180;11.478;2023-04-15T09:45:29;10.90;93.40
4677;DHT22;2352;48.180;11.478;2023-04-15T09:48:32;10.90;92.40
4677;DHT22;2352;48.180;11.478;2023-04-15T09:51:36;10.90;93.00
4677;DHT22;2352;48.180;11.478;2023-04-15T09:54:39;10.90;93.30
4677;DHT22;2352;48.180;11.478;2023-04-15T09:57:42;11.00;93.40
4677;DHT22;2352;48.180;11.478;2023-04-15T10:00:48;11.00;93.00
4677;DHT22;2352;48.180;11.478;2023-04-15T10:03:53;11.10;92.70
4677;DHT22;2352;48.180;11.478;2023-04-15T10:06:59;11.00;92.70
4677;DHT22;2352;48.180;11.478;2023-04-15T10:10:03;11.10;92.90
4677;DHT22;2352;48.180;11.478;2023-04-15T10:13:07;11.20;93.30
4677;DHT22;2352;48.180;11.478;2023-04-15T10:16:13;11.30;92.90
4677;DHT22;2352;48.180;11.478;2023-04-15T10:19:18;11.30;91.80
4677;DHT22;2352;48.180;11.478;2023-04-15T10:22:25;11.20;91.90
4677;DHT22;2352;48.180;11.478;2023-04-15T10:25:29;11.10;91.80
4677;DHT22;2352;48.180;11.478;2023-04-15T10:28:35;11.20;91.90
4677;DHT22;2352;48.180;11.478;2023-04-15T10:31:38;11.20;91.60
4677;DHT22;2352;48.180;11.478;2023-04-15T10:34:41;11.30;92.00
4677;DHT22;2352;48.180;11.478;2023-04-15T10:37:46;11.20;91.50
4677;DHT22;2352;48.180;11.478;2023-04-15T10:40:49;11.20;91.70
4677;DHT22;2352;48.180;11.478;2023-04-15T10:43:53;11.20;91.40
4677;DHT22;2352;48.180;11.478;2023-04-15T10:46:57;11.10;92.20
4677;DHT22;2352;48.180;11.478;2023-04-15T10:50:00;11.20;92.00
4677;DHT22;2352;48.180;11.478;2023-04-15T10:53:05;11.30;91.80
4677;DHT22;2352;48.180;11.478;2023-04-15T10:56:12;11.30;91.80
4677;DHT22;2352;48.180;11.478;2023-04-15T10:59:15;11.40;92.00
4677;DHT22;2352;48.180;11.478;2023-04-15T11:02:18;11.40;91.60
4677;DHT22;2352;48.180;11.478;2023-04-15T11:05:22;11.40;91.80
4677;DHT22;2352;48.180;11.478;2023-04-15T11:08:57;11.50;91.50
4677;DHT22;2352;48.180;11.478;2023-04-15T11:12:05;11.50;91.00
4677;DHT22;2352;48.180;11.478;2023-04-15T11:15:27;11.40;91.20
4677;DHT22;2352;48.180;11.478;2023-04-15T11:18:32;11.40;91.10
4677;DHT22;2352;48.180;11.478;2023-04-15T11:21:35;11.30;91.80
4677;DHT22;2352;48.180;11.478;2023-04-15T11:24:47;11.40;91.70
4677;DHT22;2352;48.180;11.478;2023-04-15T11:27:51;11.40;91.20
4677;DHT22;2352;48.180;11.478;2023-04-15T11:30:55;11.50;92.20
4677;DHT22;2352;48.180;11.478;2023-04-15T11:33:59;11.50;92.30
4677;DHT22;2352;48.180;11.478;2023-04-15T11:37:04;11.50;91.80
4677;DHT22;2352;48.180;11.478;2023-04-15T11:40:10;11.40;91.60
4677;DHT22;2352;48.180;11.478;2023-04-15T11:43:15;11.40;91.70
4677;DHT22;2352;48.180;11.478;2023-04-15T11:46:20;11.30;91.90
4677;DHT22;2352;48.180;11.478;2023-04-15T11:49:27;11.30;92.00
4677;DHT22;2352;48.180;11.478;2023-04-15T11:52:30;11.40;92.30
4677;DHT22;2352;48.180;11.478;2023-04-15T11:55:42;11.40;91.30
4677;DHT22;2352;48.180;11.478;2023-04-15T11:58:48;11.40;91.30
4677;DHT22;2352;48.180;11.478;2023-04-15T12:01:53;11.40;91.80
4677;DHT22;2352;48.180;11.478;2023-04-15T12:05:02;11.40;91.10
4677;DHT22;2352;48.180;11.478;2023-04-15T12:08:06;11.30;91.40
4677;DHT22;2352;48.180;11.478;2023-04-15T12:11:10;11.40;91.60
4677;DHT22;2352;48.180;11.478;2023-04-15T12:14:19;11.40;91.30
4677;DHT22;2352;48.180;11.478;2023-04-15T12:17:22;11.40;90.90
4677;DHT22;2352;48.180;11.478;2023-04-15T12:20:25;11.40;90.90
4677;DHT22;2352;48.180;11.478;2023-04-15T12:23:28;11.40;91.20
4677;DHT22;2352;48.180;11.478;2023-04-15T12:26:35;11.50;90.60
4677;DHT22;2352;48.180;11.478;2023-04-15T12:29:39;11.50;90.30
4677;DHT22;2352;48.180;11.478;2023-04-15T12:32:42;11.50;88.40
4677;DHT22;2352;48.180;11.478;2023-04-15T12:35:47;11.50;86.30
4677;DHT22;2352;48.180;11.478;2023-04-15T12:38:50;11.50;83.60
4677;DHT22;2352;48.180;11.478;2023-04-15T12:41:55;11.50;83.80
4677;DHT22;2352;48.180;11.478;2023-04-15T12:44:58;11.50;85.30
4677;DHT22;2352;48.180;11.478;2023-04-15T12:48:01;11.50;85.30
4677;DHT22;2352;48.180;11.478;2023-04-15T12:51:04;11.50;85.20
4677;DHT22;2352;48.180;11.478;2023-04-15T12:54:07;11.50;85.30
4677;DHT22;2352;48.180;11.478;2023-04-15T12:57:11;11.50;84.10
4677;DHT22;2352;48.180;11.478;2023-04-15T13:00:14;11.50;82.50
4677;DHT22;2352;48.180;11.478;2023-04-15T13:03:18;11.30;81.00
4677;DHT22;2352;48.180;11.478;2023-04-15T13:06:21;11.20;82.90
4677;DHT22;2352;48.180;11.478;2023-04-15T13:09:24;11.40;82.20
4677;DHT22;2352;48.180;11.478;2023-04-15T13:12:29;11.20;83.20
4677;DHT22;2352;48.180;11.478;2023-04-15T13:15:31;11.30;83.50
4677;DHT22;2352;48.180;11.478;2023-04-15T13:18:34;11.20;82.40
4677;DHT22;2352;48.180;11.478;2023-04-15T13:21:37;11.30;83.50
4677;DHT22;2352;48.180;11.478;2023-04-15T13:24:40;11.30;85.20
4677;DHT22;2352;48.180;11.478;2023-04-15T13:27:44;11.10;84.60
4677;DHT22;2352;48.180;11.478;2023-04-15T13:30:47;11.10;84.80
4677;DHT22;2352;48.180;11.478;2023-04-15T13:33:50;11.00;85.70
4677;DHT22;2352;48.180;11.478;2023-04-15T13:36:53;10.90;87.40
4677;DHT22;2352;48.180;11.478;2023-04-15T13:39:56;11.10;89.10
4677;DHT22;2352;48.180;11.478;2023-04-15T13:43:00;11.20;91.20
4677;DHT22;2352;48.180;11.478;2023-04-15T13:46:04;11.10;92.00
4677;DHT22;2352;48.180;11.478;2023-04-15T13:49:07;11.20;91.50
4677;DHT22;2352;48.180;11.478;2023-04-15T13:52:10;11.30;90.80
4677;DHT22;2352;48.180;11.478;2023-04-15T13:55:13;11.40;91.20
4677;DHT22;2352;48.180;11.478;2023-04-15T13:58:23;11.30;90.80
4677;DHT22;2352;48.180;11.478;2023-04-15T14:01:26;11.20;90.00
4677;DHT22;2352;48.180;11.478;2023-04-15T14:04:30;11.20;90.30
4677;DHT22;2352;48.180;11.478;2023-04-15T14:07:33;11.30;90.30
4677;DHT22;2352;48.180;11.478;2023-04-15T14:10:37;11.10;89.80
4677;DHT22;2352;48.180;11.478;2023-04-15T14:13:41;11.00;89.60
4677;DHT22;2352;48.180;11.478;2023-04-15T14:16:44;10.90;87.90
4677;DHT22;2352;48.180;11.478;2023-04-15T14:19:48;10.90;89.20
4677;DHT22;2352;48.180;11.478;2023-04-15T14:22:51;11.00;88.50
4677;DHT22;2352;48.180;11.478;2023-04-15T14:25:54;11.10;87.60
4677;DHT22;2352;48.180;11.478;2023-04-15T14:28:58;11.10;88.70
4677;DHT22;2352;48.180;11.478;2023-04-15T14:32:01;11.20;88.20
4677;DHT22;2352;48.180;11.478;2023-04-15T14:35:13;11.10;88.20
4677;DHT22;2352;48.180;11.478;2023-04-15T14:38:16;11.10;88.50
4677;DHT22;2352;48.180;11.478;2023-04-15T14:41:18;11.20;88.80
4677;DHT22;2352;48.180;11.478;2023-04-15T14:44:24;11.20;87.60
4677;DHT22;2352;48.180;11.478;2023-04-15T14:47:27;11.30;88.70
4677;DHT22;2352;48.180;11.478;2023-04-15T14:50:29;11.30;89.10
4677;DHT22;2352;48.180;11.478;2023-04-15T14:53:32;11.30;90.10
4677;DHT22;2352;48.180;11.478;2023-04-15T14:56:35;11.40;90.10
4677;DHT22;2352;48.180;11.478;2023-04-15T14:59:39;11.40;90.40
4677;DHT22;2352;48.180;11.478;2023-04-15T15:02:42;11.40;91.40
4677;DHT22;2352;48.180;11.478;2023-04-15T15:05:47;11.30;92.50
4677;DHT22;2352;48.180;11.478;2023-04-15T15:08:51;11.40;94.30
4677;DHT22;2352;48.180;11.478;2023-04-15T15:11:53;11.40;93.30
4677;DHT22;2352;48.180;11.478;2023-04-15T15:14:59;11.40;93.70
4677;DHT22;2352;48.180;11.478;2023-04-15T15:18:05;10.80;93.60
4677;DHT22;2352;48.180;11.478;2023-04-15T15:21:09;10.70;94.80
4677;DHT22;2352;48.180;11.478;2023-04-15T15:24:12;10.70;94.90
4677;DHT22;2352;48.180;11.478;2023-04-15T15:27:14;10.70;95.40
4677;DHT22;2352;48.180;11.478;2023-04-15T15:30:19;10.70;95.40
4677;DHT22;2352;48.180;11.478;2023-04-15T15:33:22;10.80;95.70
4677;DHT22;2352;48.180;11.478;2023-04-15T15:36:24;10.90;95.90
4677;DHT22;2352;48.180;11.478;2023-04-15T15:39:27;10.90;95.60
4677;DHT22;2352;48.180;11.478;2023-04-15T15:42:31;11.00;95.90
4677;DHT22;2352;48.180;11.478;2023-04-15T15:45:35;11.10;96.00
4677;DHT22;2352;48.180;11.478;2023-04-15T15:48:38;11.00;96.10
4677;DHT22;2352;48.180;11.478;2023-04-15T15:51:41;10.80;95.80
4677;DHT22;2352;48.180;11.478;2023-04-15T15:54:44;10.80;96.40
4677;DHT22;2352;48.180;11.478;2023-04-15T15:57:46;10.60;95.80
4677;DHT22;2352;48.180;11.478;2023-04-15T16:00:51;10.70;95.80
4677;DHT22;2352;48.180;11.478;2023-04-15T16:03:55;10.70;96.10
4677;DHT22;2352;48.180;11.478;2023-04-15T16:06:58;10.80;96.30
4677;DHT22;2352;48.180;11.478;2023-04-15T16:10:00;10.80;95.90
4677;DHT22;2352;48.180;11.478;2023-04-15T16:13:04;10.80;95.70
4677;DHT22;2352;48.180;11.478;2023-04-15T16:16:08;10.80;95.50
4677;DHT22;2352;48.180;11.478;2023-04-15T16:19:11;10.70;95.50
4677;DHT22;2352;48.180;11.478;2023-04-15T16:22:14;10.80;95.80
4677;DHT22;2352;48.180;11.478;2023-04-15T16:25:17;10.80;95.90
4677;DHT22;2352;48.180;11.478;2023-04-15T16:28:20;10.80;96.10
4677;DHT22;2352;48.180;11.478;2023-04-15T16:31:29;10.80;96.10
4677;DHT22;2352;48.180;11.478;2023-04-15T16:34:32;10.80;95.40
4677;DHT22;2352;48.180;11.478;2023-04-15T16:37:35;10.70;95.80
4677;DHT22;2352;48.180;11.478;2023-04-15T16:40:38;10.80;95.60
4677;DHT22;2352;48.180;11.478;2023-04-15T16:43:41;10.60;96.10
4677;DHT22;2352;48.180;11.478;2023-04-15T16:46:45;10.40;96.10
4677;DHT22;2352;48.180;11.478;2023-04-15T16:49:49;10.30;95.70
4677;DHT22;2352;48.180;11.478;2023-04-15T16:52:51;10.40;96.00
4677;DHT22;2352;48.180;11.478;2023-04-15T16:55:54;10.40;96.00
4677;DHT22;2352;48.180;11.478;2023-04-15T16:58:57;10.40;95.60
4677;DHT22;2352;48.180;11.478;2023-04-15T17:02:01;10.20;96.60
4677;DHT22;2352;48.180;11.478;2023-04-15T17:05:05;10.30;96.60
4677;DHT22;2352;48.180;11.478;2023-04-15T17:08:08;10.30;96.80
4677;DHT22;2352;48.180;11.478;2023-04-15T17:11:11;10.30;96.80
4677;DHT22;2352;48.180;11.478;2023-04-15T17:14:15;10.30;97.10
4677;DHT22;2352;48.180;11.478;2023-04-15T17:17:20;10.20;97.90
4677;DHT22;2352;48.180;11.478;2023-04-15T17:20:23;10.20;98.20
4677;DHT22;2352;48.180;11.478;2023-04-15T17:23:27;10.20;98.40
4677;DHT22;2352;48.180;11.478;2023-04-15T17:26:29;10.20;98.70
4677;DHT22;2352;48.180;11.478;2023-04-15T17:29:32;10.20;98.50
4677;DHT22;2352;48.180;11.478;2023-04-15T17:32:37;10.10;98.50
4677;DHT22;2352;48.180;11.478;2023-04-15T17:35:40;10.10;98.30
4677;DHT22;2352;48.180;11.478;2023-04-15T17:38:43;10.10;97.90
4677;DHT22;2352;48.180;11.478;2023-04-15T17:41:46;10.00;98.70
4677;DHT22;2352;48.180;11.478;2023-04-15T17:44:49;10.00;98.70
4677;DHT22;2352;48.180;11.478;2023-04-15T17:47:53;9.90;98.50
4677;DHT22;2352;48.180;11.478;2023-04-15T17:50:56;9.90;98.90
4677;DHT22;2352;48.180;11.478;2023-04-15T17:53:59;9.90;98.70
4677;DHT22;2352;48.180;11.478;2023-04-15T17:57:02;9.80;99.00
4677;DHT22;2352;48.180;11.478;2023-04-15T18:00:06;9.70;99.10
4677;DHT22;2352;48.180;11.478;2023-04-15T18:03:12;9.80;99.60
4677;DHT22;2352;48.180;11.478;2023-04-15T18:06:15;9.80;99.30
4677;DHT22;2352;48.180;11.478;2023-04-15T18:09:18;9.70;99.30
4677;DHT22;2352;48.180;11.478;2023-04-15T18:12:21;9.80;99.60
4677;DHT22;2352;48.180;11.478;2023-04-15T18:15:24;9.80;99.60
4677;DHT22;2352;48.180;11.478;2023-04-15T18:18:28;9.80;99.50
4677;DHT22;2352;48.180;11.478;2023-04-15T18:21:31;9.80;99.60
4677;DHT22;2352;48.180;11.478;2023-04-15T18:24:34;9.90;99.50
4677;DHT22;2352;48.180;11.478;2023-04-15T18:27:37;9.80;99.40
4677;DHT22;2352;48.180;11.478;2023-04-15T18:30:40;9.80;99.90
4677;DHT22;2352;48.180;11.478;2023-04-15T18:33:44;9.80;99.90
4677;DHT22;2352;48.180;11.478;2023-04-15T18:36:47;9.90;99.90
4677;DHT22;2352;48.180;11.478;2023-04-15T18:39:50;9.90;99.90
4677;DHT22;2352;48.180;11.478;2023-04-15T18:42:54;9.90;99.90
4677;DHT22;2352;48.180;11.478;2023-04-15T18:45:58;9.90;99.90
4677;DHT22;2352;48.180;11.478;2023-04-15T18:49:03;9.90;99.90
4677;DHT22;2352;48.180;11.478;2023-04-15T18:52:07;9.90;99.90
4677;DHT22;2352;48.180;11.478;2023-04-15T18:55:10;9.80;99.90
4677;DHT22;2352;48.180;11.478;2023-04-15T18:58:13;9.80;99.90
4677;DHT22;2352;48.180;11.478;2023-04-15T19:01:16;9.80;99.90
4677;DHT22;2352;48.180;11.478;2023-04-15T19:04:21;9.80;99.90
4677;DHT22;2352;48.180;11.478;2023-04-15T19:07:27;9.80;99.90
4677;DHT22;2352;48.180;11.478;2023-04-15T19:10:32;9.80;99.90
4677;DHT22;2352;48.180;11.478;2023-04-15T19:13:35;9.80;99.90
4677;DHT22;2352;48.180;11.478;2023-04-15T19:16:40;9.80;99.90
4677;DHT22;2352;48.180;11.478;2023-04-15T19:19:44;9.80;99.90
4677;DHT22;2352;48.180;11.478;2023-04-15T19:22:50;9.80;99.90
4677;DHT22;2352;48.180;11.478;2023-04-15T19:25:53;9.70;99.90
4677;DHT22;2352;48.180;11.478;2023-04-15T19:28:56;9.60;99.90
4677;DHT22;2352;48.180;11.478;2023-04-15T19:31:59;9.70;99.90
4677;DHT22;2352;48.180;11.478;2023-04-15T19:35:05;9.80;99.90
4677;DHT22;2352;48.180;11.478;2023-04-15T19:38:11;9.80;99.90
4677;DHT22;2352;48.180;11.478;2023-04-15T19:41:14;9.90;99.90
4677;DHT22;2352;48.180;11.478;2023-04-15T19:44:17;9.80;99.90
4677;DHT22;2352;48.180;11.478;2023-04-15T19:47:20;9.80;99.90
4677;DHT22;2352;48.180;11.478;2023-04-15T19:50:27;9.80;99.90